Time;durP1;ratioP1;P1;durP2;ratioP2;P2;SDS_P1;SDS_P2;PMS_P1;PMS_P2;Temp;Humidity;BMP_temperature;BMP_pressure;BME280_temperature;BME280_humidity;BME280_pressure;Samples;Min_cycle;Max_cycle;Signal;HPM_P1;HPM_P2
2021/11/25 00:00:53;;;;;;;16.95;11.95;;;3.10;99.90;;;;;;5062185;28;20590;-83
2021/11/25 00:03:21;;;;;;;19.45;14.15;;;3.20;99.90;;;;;;5063942;28;20211;-83
2021/11/25 00:05:47;;;;;;;22.15;13.75;;;3.20;99.90;;;;;;5064319;28;20314;-84
2021/11/25 00:08:14;;;;;;;14.45;10.60;;;3.20;99.90;;;;;;5063357;28;20317;-83
2021/11/25 00:10:42;;;;;;;19.88;11.45;;;3.20;99.90;;;;;;5063337;28;20224;-83
2021/11/25 00:13:09;;;;;;;18.70;11.48;;;3.10;99.90;;;;;;5061661;28;20207;-83
2021/11/25 00:15:36;;;;;;;16.42;12.20;;;3.10;99.90;;;;;;5058486;28;20573;-83
2021/11/25 00:18:04;;;;;;;18.00;13.10;;;3.10;99.90;;;;;;5059301;28;20633;-83
2021/11/25 00:20:31;;;;;;;18.13;12.40;;;3.10;99.90;;;;;;5057997;28;20212;-83
2021/11/25 00:22:58;;;;;;;16.83;11.75;;;3.10;99.90;;;;;;5058265;28;20577;-83
2021/11/25 00:25:25;;;;;;;18.55;13.60;;;3.00;99.90;;;;;;5058454;28;20204;-83
2021/11/25 00:27:52;;;;;;;20.30;15.90;;;3.10;99.90;;;;;;5059047;28;20238;-83
2021/11/25 00:30:18;;;;;;;13.18;11.18;;;3.10;99.90;;;;;;5059054;28;20216;-83
2021/11/25 00:32:46;;;;;;;19.30;12.80;;;3.20;99.90;;;;;;5062733;28;20212;-83
2021/11/25 00:35:15;;;;;;;16.67;12.95;;;3.20;99.90;;;;;;5062261;28;20207;-83
2021/11/25 00:37:42;;;;;;;19.10;15.60;;;3.30;99.90;;;;;;5061773;28;20227;-83
2021/11/25 00:40:12;;;;;;;14.98;10.43;;;3.30;99.90;;;;;;5061699;28;20201;-83
2021/11/25 00:42:39;;;;;;;14.32;11.45;;;3.30;99.90;;;;;;5062307;28;20207;-83
2021/11/25 00:45:07;;;;;;;20.48;12.88;;;3.30;99.90;;;;;;5061725;28;20227;-83
2021/11/25 00:47:33;;;;;;;16.23;13.32;;;3.30;99.90;;;;;;5062123;28;20242;-84
2021/11/25 00:50:01;;;;;;;22.23;14.25;;;3.30;99.90;;;;;;5062034;28;20683;-84
2021/11/25 00:52:29;;;;;;;20.33;12.20;;;3.30;99.90;;;;;;5062212;28;20297;-84
2021/11/25 00:54:56;;;;;;;14.98;11.43;;;3.20;99.90;;;;;;5061836;28;20196;-83
2021/11/25 00:57:23;;;;;;;19.17;12.57;;;3.10;99.90;;;;;;5062121;28;20235;-84
2021/11/25 00:59:51;;;;;;;21.65;14.73;;;3.20;99.90;;;;;;5061576;28;20207;-84
2021/11/25 01:02:18;;;;;;;15.18;11.65;;;3.20;99.90;;;;;;5061299;28;20213;-84
2021/11/25 01:04:45;;;;;;;15.02;11.93;;;3.20;99.90;;;;;;5061678;28;20579;-84
2021/11/25 01:07:12;;;;;;;19.13;12.05;;;3.30;99.90;;;;;;5061794;28;20238;-84
2021/11/25 01:09:40;;;;;;;16.25;12.13;;;3.30;99.90;;;;;;5061784;28;20269;-83
2021/11/25 01:12:09;;;;;;;19.33;12.30;;;3.30;99.90;;;;;;5061770;28;20226;-83
2021/11/25 01:14:37;;;;;;;18.80;12.00;;;3.30;99.90;;;;;;5061129;28;20267;-84
2021/11/25 01:17:04;;;;;;;17.30;12.35;;;3.30;99.90;;;;;;5061558;28;20239;-83
2021/11/25 01:19:31;;;;;;;17.35;13.50;;;3.30;99.90;;;;;;5064980;28;20213;-83
2021/11/25 01:21:58;;;;;;;14.43;12.10;;;3.30;99.90;;;;;;5061245;28;20211;-81
2021/11/25 01:24:25;;;;;;;17.00;12.75;;;3.20;99.90;;;;;;5061447;28;20209;-82
2021/11/25 01:26:55;;;;;;;21.35;14.45;;;3.30;99.90;;;;;;5062016;28;20213;-82
2021/11/25 01:29:21;;;;;;;18.85;13.60;;;3.30;99.90;;;;;;5061482;28;20198;-81
2021/11/25 01:31:49;;;;;;;16.58;13.25;;;3.30;99.90;;;;;;5061324;28;20227;-82
2021/11/25 01:34:15;;;;;;;21.05;12.93;;;3.30;99.90;;;;;;5061196;28;20202;-82
2021/11/25 01:36:42;;;;;;;17.63;13.65;;;3.30;99.90;;;;;;5062089;28;20210;-82
2021/11/25 01:39:09;;;;;;;15.73;11.77;;;3.30;99.90;;;;;;5061326;28;20206;-82
2021/11/25 01:41:38;;;;;;;16.25;12.60;;;3.30;99.90;;;;;;5061223;28;20203;-82
2021/11/25 01:44:07;;;;;;;17.73;14.25;;;3.30;99.90;;;;;;5061136;28;20255;-82
2021/11/25 01:46:33;;;;;;;21.60;14.30;;;3.30;99.90;;;;;;5061234;28;20214;-82
2021/11/25 01:49:00;;;;;;;18.55;12.80;;;3.30;99.90;;;;;;5061369;28;20614;-81
2021/11/25 01:51:27;;;;;;;17.35;12.43;;;3.20;99.90;;;;;;5060201;28;20224;-81
2021/11/25 01:53:54;;;;;;;19.58;14.93;;;3.20;99.90;;;;;;5060387;28;20213;-81
2021/11/25 01:56:21;;;;;;;16.15;12.85;;;3.10;99.90;;;;;;5061180;28;20209;-82
2021/11/25 01:58:48;;;;;;;21.42;14.13;;;3.10;99.90;;;;;;5060556;28;20252;-82
2021/11/25 02:01:19;;;;;;;21.27;13.40;;;3.10;99.90;;;;;;5060633;28;20273;-82
2021/11/25 02:03:47;;;;;;;18.25;13.15;;;3.10;99.90;;;;;;5061115;28;20201;-82
2021/11/25 02:06:16;;;;;;;24.05;14.60;;;3.20;99.90;;;;;;5060961;28;20218;-82
2021/11/25 02:08:43;;;;;;;17.58;14.50;;;3.20;99.90;;;;;;5065876;28;20234;-81
2021/11/25 02:11:10;;;;;;;18.58;13.65;;;3.20;99.90;;;;;;5074658;28;20223;-81
2021/11/25 02:13:38;;;;;;;19.20;12.82;;;3.20;99.90;;;;;;5074283;28;20242;-81
2021/11/25 02:16:05;;;;;;;19.38;14.10;;;3.30;99.90;;;;;;5073832;28;20206;-81
2021/11/25 02:18:33;;;;;;;17.05;13.80;;;3.30;99.90;;;;;;5060427;28;20228;-81
2021/11/25 02:21:04;;;;;;;21.63;12.70;;;3.30;99.90;;;;;;5039660;28;20207;-82
2021/11/25 02:23:30;;;;;;;17.88;12.90;;;3.10;99.90;;;;;;5040421;28;20212;-81
2021/11/25 02:25:59;;;;;;;21.10;13.25;;;2.90;99.90;;;;;;5059708;28;20198;-81
2021/11/25 02:28:27;;;;;;;20.17;13.75;;;2.90;99.90;;;;;;5060703;28;20234;-82
2021/11/25 02:30:54;;;;;;;17.63;12.82;;;2.90;99.90;;;;;;5059692;28;20237;-84
2021/11/25 02:33:21;;;;;;;20.17;14.00;;;2.90;99.90;;;;;;5063420;28;20268;-83
2021/11/25 02:35:49;;;;;;;17.98;12.73;;;3.00;99.90;;;;;;5065744;28;20204;-84
2021/11/25 02:38:17;;;;;;;20.20;13.70;;;3.00;99.90;;;;;;5065346;28;20269;-84
2021/11/25 02:40:47;;;;;;;20.48;14.73;;;3.10;99.90;;;;;;5064526;28;20207;-84
2021/11/25 02:43:16;;;;;;;20.10;13.90;;;3.10;99.90;;;;;;5063016;28;20218;-84
2021/11/25 02:45:48;;;;;;;17.60;12.23;;;3.10;99.90;;;;;;5039330;28;20209;-84
2021/11/25 02:48:17;;;;;;;19.08;14.65;;;3.10;99.90;;;;;;5039297;28;20228;-84
2021/11/25 02:50:45;;;;;;;20.05;14.52;;;3.10;99.90;;;;;;5039335;28;20214;-84
2021/11/25 02:53:18;;;;;;;19.17;12.55;;;3.10;99.90;;;;;;5038784;28;20240;-83
2021/11/25 02:55:46;;;;;;;17.13;12.90;;;3.00;99.90;;;;;;5059427;28;20208;-84
2021/11/25 02:58:13;;;;;;;20.60;13.65;;;3.00;99.90;;;;;;5059127;28;20232;-84
2021/11/25 03:00:43;;;;;;;17.38;14.18;;;2.90;99.90;;;;;;5060079;28;20210;-84
2021/11/25 03:03:12;;;;;;;24.30;17.10;;;2.70;99.90;;;;;;5063092;28;20200;-84
2021/11/25 03:05:42;;;;;;;18.60;12.65;;;2.70;99.90;;;;;;5059548;28;20202;-84
2021/11/25 03:08:11;;;;;;;20.42;14.70;;;2.70;99.90;;;;;;5059443;28;20238;-82
2021/11/25 03:10:39;;;;;;;20.15;14.80;;;2.70;99.90;;;;;;5058789;28;20214;-81
2021/11/25 03:13:09;;;;;;;25.83;15.90;;;2.30;99.90;;;;;;5059190;28;20230;-81
2021/11/25 03:15:38;;;;;;;23.63;14.50;;;2.40;99.90;;;;;;5059056;28;20202;-81
2021/11/25 03:18:05;;;;;;;19.02;12.90;;;2.50;99.90;;;;;;5059140;28;20238;-81
2021/11/25 03:20:32;;;;;;;21.30;14.38;;;2.60;99.90;;;;;;5059428;28;20202;-82
2021/11/25 03:22:59;;;;;;;20.75;12.52;;;2.60;99.90;;;;;;5059408;28;20688;-81
2021/11/25 03:25:26;;;;;;;21.52;15.43;;;2.70;99.90;;;;;;5058797;28;20213;-81
2021/11/25 03:27:53;;;;;;;15.30;13.05;;;2.70;99.90;;;;;;5058570;28;20596;-84
2021/11/25 03:30:21;;;;;;;18.45;12.00;;;2.80;99.90;;;;;;5057869;28;20211;-84
2021/11/25 03:32:48;;;;;;;19.90;13.15;;;2.80;99.90;;;;;;5058560;28;20235;-81
2021/11/25 03:35:15;;;;;;;20.58;13.95;;;2.80;99.90;;;;;;5058556;28;20225;-82
2021/11/25 03:37:42;;;;;;;20.02;15.18;;;2.80;99.90;;;;;;5059181;28;20228;-81
2021/11/25 03:40:10;;;;;;;20.40;14.85;;;2.90;99.90;;;;;;5058442;28;20212;-81
2021/11/25 03:42:37;;;;;;;20.35;14.20;;;2.90;99.90;;;;;;5058659;28;20209;-81
2021/11/25 03:45:05;;;;;;;20.20;15.60;;;3.00;99.90;;;;;;5059254;28;20212;-81
2021/11/25 03:47:33;;;;;;;20.90;13.45;;;3.00;99.90;;;;;;5059550;28;20235;-81
2021/11/25 03:50:00;;;;;;;20.00;13.63;;;3.00;99.90;;;;;;5058602;28;20206;-81
2021/11/25 03:52:27;;;;;;;19.52;12.93;;;3.00;99.90;;;;;;5058319;28;20705;-81
2021/11/25 03:54:55;;;;;;;19.27;12.98;;;2.90;99.90;;;;;;5058486;28;20578;-81
2021/11/25 03:57:21;;;;;;;23.77;14.23;;;3.00;99.90;;;;;;5058439;28;20222;-82
2021/11/25 03:59:48;;;;;;;21.05;13.63;;;3.00;99.90;;;;;;5058015;28;20206;-81
2021/11/25 04:02:15;;;;;;;22.85;14.70;;;2.90;99.90;;;;;;5058340;28;20216;-82
2021/11/25 04:04:43;;;;;;;17.23;10.98;;;2.70;99.90;;;;;;5058602;28;20209;-82
2021/11/25 04:07:10;;;;;;;19.42;13.30;;;2.40;99.90;;;;;;5058993;28;20227;-82
2021/11/25 04:09:37;;;;;;;22.50;15.75;;;2.20;99.90;;;;;;5058295;28;20213;-81
2021/11/25 04:12:04;;;;;;;27.00;15.55;;;2.10;99.90;;;;;;5058507;28;20226;-81
2021/11/25 04:14:31;;;;;;;21.35;13.93;;;2.00;99.90;;;;;;5057922;28;20691;-82
2021/11/25 04:16:58;;;;;;;20.33;13.05;;;1.90;99.90;;;;;;5085169;22;20190;-82
2021/11/25 04:19:26;;;;;;;22.83;14.50;;;1.90;99.90;;;;;;5077526;28;20247;-82
2021/11/25 04:21:54;;;;;;;20.75;14.02;;;1.90;99.90;;;;;;5077608;28;20212;-81
2021/11/25 04:24:21;;;;;;;22.92;16.38;;;1.90;99.90;;;;;;5077116;28;20208;-82
2021/11/25 04:26:48;;;;;;;24.65;15.95;;;1.70;99.90;;;;;;5076721;28;20220;-82
2021/11/25 04:29:15;;;;;;;21.90;14.50;;;1.60;99.90;;;;;;5077350;28;20212;-82
2021/11/25 04:37:15;;;;;;;26.27;17.27;;;1.60;99.90;;;;;;5077642;28;20231;-82
2021/11/25 04:39:42;;;;;;;25.85;16.70;;;1.40;99.90;;;;;;5078771;28;20574;-82
2021/11/25 04:42:10;;;;;;;25.30;14.48;;;1.30;99.90;;;;;;5079015;28;20201;-82
2021/11/25 04:44:37;;;;;;;27.15;15.48;;;1.20;99.90;;;;;;5079742;28;20207;-82
2021/11/25 04:47:05;;;;;;;23.95;16.00;;;1.20;99.90;;;;;;5079177;28;20738;-82
2021/11/25 04:49:32;;;;;;;23.00;14.80;;;1.40;99.90;;;;;;5079640;28;20207;-82
2021/11/25 04:51:58;;;;;;;21.63;14.70;;;1.20;99.90;;;;;;5079361;28;20237;-82
2021/11/25 04:54:26;;;;;;;25.52;14.90;;;1.20;99.90;;;;;;5079146;28;20209;-82
2021/11/25 04:56:53;;;;;;;25.30;14.73;;;1.20;99.90;;;;;;5079320;28;20216;-82
2021/11/25 04:59:20;;;;;;;24.17;16.95;;;1.20;99.90;;;;;;5077666;28;20212;-82
2021/11/25 05:01:46;;;;;;;22.88;14.63;;;1.20;99.90;;;;;;5077657;28;20205;-82
2021/11/25 05:04:13;;;;;;;24.80;15.27;;;1.20;99.90;;;;;;5078555;28;20221;-82
2021/11/25 05:06:40;;;;;;;26.77;14.88;;;1.20;99.90;;;;;;5078079;28;20721;-81
2021/11/25 05:09:07;;;;;;;27.55;14.75;;;1.20;99.90;;;;;;5077504;28;20233;-82
2021/11/25 05:11:35;;;;;;;22.10;14.73;;;1.20;99.90;;;;;;5077081;28;20213;-82
2021/11/25 05:14:02;;;;;;;25.10;17.70;;;1.10;99.90;;;;;;5076612;28;20696;-82
2021/11/25 05:16:28;;;;;;;25.42;15.65;;;1.10;99.90;;;;;;5078570;28;20228;-82
2021/11/25 05:18:55;;;;;;;26.00;15.77;;;1.10;99.90;;;;;;5080016;28;20235;-82
2021/11/25 05:21:22;;;;;;;26.75;16.73;;;1.10;99.90;;;;;;5080448;28;20212;-82
2021/11/25 05:23:49;;;;;;;20.77;13.98;;;1.10;99.90;;;;;;5080725;28;20547;-81
2021/11/25 05:26:15;;;;;;;25.63;14.75;;;1.10;99.90;;;;;;5080932;28;20244;-81
2021/11/25 05:28:44;;;;;;;24.40;15.70;;;1.20;99.90;;;;;;5080512;28;20228;-81
2021/11/25 05:31:11;;;;;;;21.95;15.25;;;1.20;99.90;;;;;;5080345;28;20204;-81
2021/11/25 05:33:37;;;;;;;23.75;14.95;;;1.10;99.90;;;;;;5079886;28;20218;-81
2021/11/25 05:36:05;;;;;;;23.42;15.77;;;1.10;99.90;;;;;;5079950;28;20210;-82
2021/11/25 05:38:31;;;;;;;24.38;14.98;;;1.10;99.90;;;;;;5079255;28;20225;-82
2021/11/25 05:40:58;;;;;;;28.45;17.80;;;1.20;99.90;;;;;;5079807;28;20205;-82
2021/11/25 05:43:25;;;;;;;25.63;14.50;;;1.30;99.90;;;;;;5080048;28;20205;-82
2021/11/25 05:45:54;;;;;;;23.23;15.90;;;1.60;99.90;;;;;;5079776;28;20213;-82
2021/11/25 05:48:22;;;;;;;21.83;15.77;;;1.70;99.90;;;;;;5079991;28;20300;-82
2021/11/25 05:50:50;;;;;;;22.25;15.27;;;1.90;99.90;;;;;;5080359;28;20203;-82
2021/11/25 05:53:18;;;;;;;26.08;16.40;;;2.00;99.90;;;;;;5080285;28;20252;-82
2021/11/25 05:55:45;;;;;;;19.25;14.95;;;2.00;99.90;;;;;;5095017;28;20194;-82
2021/11/25 05:58:12;;;;;;;25.85;16.42;;;1.80;99.90;;;;;;5094749;28;20221;-82
2021/11/25 06:00:39;;;;;;;27.98;16.48;;;1.60;99.90;;;;;;5085120;28;20654;-82
2021/11/25 06:03:07;;;;;;;24.45;15.20;;;1.50;99.90;;;;;;5087307;28;20216;-81
2021/11/25 06:05:34;;;;;;;27.55;16.35;;;1.40;99.90;;;;;;5093941;28;20236;-81
2021/11/25 06:08:02;;;;;;;28.70;17.45;;;1.30;99.90;;;;;;5093962;28;20233;-81
2021/11/25 06:10:30;;;;;;;20.23;14.73;;;1.30;99.90;;;;;;5095947;28;20207;-81
2021/11/25 06:12:58;;;;;;;24.13;16.92;;;1.20;99.90;;;;;;5082798;28;20217;-82
2021/11/25 06:15:24;;;;;;;24.75;16.30;;;1.20;99.90;;;;;;5080433;28;20227;-82
2021/11/25 06:17:52;;;;;;;24.85;17.38;;;1.20;99.90;;;;;;5085933;28;20287;-82
2021/11/25 06:20:21;;;;;;;31.92;18.38;;;1.30;99.90;;;;;;5087707;28;20205;-82
2021/11/25 06:22:50;;;;;;;26.20;18.88;;;1.50;99.90;;;;;;5089949;28;20203;-81
2021/11/25 06:25:18;;;;;;;21.80;15.80;;;1.70;99.90;;;;;;5093435;28;20202;-81
2021/11/25 06:27:45;;;;;;;24.13;15.07;;;1.60;99.90;;;;;;5080876;28;20227;-82
2021/11/25 06:30:18;;;;;;;22.00;15.27;;;1.80;99.90;;;;;;5081410;28;20211;-82
2021/11/25 06:32:47;;;;;;;26.75;18.63;;;2.00;99.90;;;;;;5079974;28;20219;-82
2021/11/25 06:35:16;;;;;;;24.52;15.65;;;2.10;99.90;;;;;;5079177;28;20210;-82
2021/11/25 06:37:46;;;;;;;18.40;13.52;;;2.20;99.90;;;;;;5079087;28;20590;-82
2021/11/25 06:40:15;;;;;;;26.05;17.08;;;2.30;99.90;;;;;;5079601;28;20205;-82
2021/11/25 06:42:42;;;;;;;24.10;16.13;;;2.40;99.90;;;;;;5079077;28;20253;-82
2021/11/25 06:45:09;;;;;;;21.15;14.02;;;2.50;99.90;;;;;;5078774;28;20237;-82
2021/11/25 06:47:37;;;;;;;23.23;13.68;;;2.60;99.90;;;;;;5078440;28;20221;-82
2021/11/25 06:50:04;;;;;;;24.73;16.13;;;2.60;99.90;;;;;;5079427;28;20214;-82
2021/11/25 06:52:31;;;;;;;27.38;17.50;;;2.70;99.90;;;;;;5079483;28;20217;-82
2021/11/25 06:54:59;;;;;;;24.88;15.13;;;2.80;99.90;;;;;;5079400;28;20208;-82
2021/11/25 06:57:26;;;;;;;20.20;13.93;;;2.90;99.90;;;;;;5083851;28;20227;-82
2021/11/25 06:59:53;;;;;;;29.17;16.98;;;2.90;99.90;;;;;;5084634;28;20207;-81
2021/11/25 07:02:20;;;;;;;22.38;13.80;;;2.80;99.90;;;;;;5090033;28;20209;-81
2021/11/25 07:04:46;;;;;;;21.85;13.77;;;2.80;99.90;;;;;;5089748;28;20663;-81
2021/11/25 07:07:13;;;;;;;25.98;15.82;;;2.80;99.90;;;;;;5087141;28;20228;-81
2021/11/25 07:09:40;;;;;;;24.15;15.80;;;2.80;99.90;;;;;;5089438;28;20210;-81
2021/11/25 07:12:09;;;;;;;18.48;14.13;;;2.70;99.90;;;;;;5087846;28;20482;-81
2021/11/25 07:14:36;;;;;;;27.67;17.58;;;2.80;99.90;;;;;;5088905;28;20258;-81
2021/11/25 07:17:03;;;;;;;23.83;14.50;;;2.70;99.90;;;;;;5088058;28;20239;-81
2021/11/25 07:19:29;;;;;;;23.10;15.25;;;2.80;99.90;;;;;;5088877;28;20206;-81
2021/11/25 07:21:56;;;;;;;27.52;17.85;;;2.90;99.90;;;;;;5087924;28;20211;-81
2021/11/25 07:24:27;;;;;;;23.20;16.77;;;2.90;99.90;;;;;;5088859;28;20202;-81
2021/11/25 07:26:54;;;;;;;22.88;17.60;;;3.00;99.90;;;;;;5088487;28;20194;-82
2021/11/25 07:29:24;;;;;;;22.67;16.02;;;3.00;99.90;;;;;;5087732;28;20257;-81
2021/11/25 07:31:51;;;;;;;22.00;14.23;;;3.00;99.90;;;;;;5077516;28;20204;-81
2021/11/25 07:34:18;;;;;;;18.90;14.57;;;3.00;99.90;;;;;;5077877;28;20231;-81
2021/11/25 08:13:02;;;;;;;29.63;17.35;;;2.60;99.90;;;;;;4887273;29;20373;-81
2021/11/25 08:18:20;;;;;;;23.83;15.68;;;2.70;99.90;;;;;;5002772;28;20228;-80
2021/11/25 08:20:47;;;;;;;24.23;15.27;;;2.60;99.90;;;;;;5036746;28;20767;-80
2021/11/25 08:23:14;;;;;;;23.95;15.65;;;2.70;99.90;;;;;;5042178;28;20220;-81
2021/11/25 08:25:41;;;;;;;22.30;14.38;;;2.80;99.90;;;;;;5036382;28;20198;-79
2021/11/25 08:28:09;;;;;;;20.05;13.32;;;2.90;99.90;;;;;;5035506;28;20244;-80
2021/11/25 08:30:36;;;;;;;25.52;15.20;;;2.90;99.90;;;;;;5035521;28;20208;-78
2021/11/25 08:33:04;;;;;;;21.88;13.40;;;2.80;99.90;;;;;;5037570;28;20231;-80
2021/11/25 08:35:32;;;;;;;24.73;15.10;;;2.90;99.90;;;;;;5036827;28;20199;-79
2021/11/25 08:38:00;;;;;;;24.15;15.25;;;2.60;99.90;;;;;;5036258;28;20255;-80
2021/11/25 08:40:27;;;;;;;20.23;14.02;;;2.60;99.90;;;;;;5037236;28;20743;-80
2021/11/25 08:42:55;;;;;;;23.38;14.18;;;2.60;99.90;;;;;;5037366;28;20204;-79
2021/11/25 08:45:24;;;;;;;20.92;14.02;;;2.80;99.90;;;;;;5036967;28;20211;-80
2021/11/25 08:47:51;;;;;;;27.92;16.73;;;2.80;99.90;;;;;;5035887;28;20222;-80
2021/11/25 08:50:19;;;;;;;24.75;14.43;;;3.10;99.90;;;;;;5035789;28;20223;-79
2021/11/25 08:52:46;;;;;;;18.42;12.30;;;3.20;99.90;;;;;;5039140;28;20209;-79
2021/11/25 08:55:16;;;;;;;28.70;16.67;;;3.40;99.90;;;;;;5039283;28;20257;-80
2021/11/25 08:57:44;;;;;;;21.83;14.15;;;3.30;99.90;;;;;;5038619;28;20227;-80
2021/11/25 09:00:12;;;;;;;19.10;13.15;;;3.10;99.90;;;;;;5028505;28;20206;-78
2021/11/25 09:02:40;;;;;;;20.83;12.95;;;3.10;99.90;;;;;;5040760;28;20209;-81
2021/11/25 09:05:11;;;;;;;26.77;16.17;;;2.80;99.90;;;;;;5039675;28;20203;-80
2021/11/25 09:07:39;;;;;;;28.60;15.00;;;2.60;99.90;;;;;;5037649;28;20230;-80
2021/11/25 09:10:07;;;;;;;24.15;17.13;;;2.60;99.90;;;;;;5039803;28;20202;-77
2021/11/25 09:12:53;;;;;;;28.90;15.90;;;2.80;99.90;;;;;;5038987;28;20216;-81
2021/11/25 09:18:27;;;;;;;24.40;15.27;;;3.00;99.90;;;;;;5039534;28;20583;-81
2021/11/25 09:20:54;;;;;;;24.77;16.42;;;2.90;99.90;;;;;;5038992;28;20200;-78
2021/11/25 09:23:30;;;;;;;22.10;14.40;;;2.70;99.90;;;;;;5043082;28;20207;-84
2021/11/25 09:26:22;;;;;;;27.00;16.67;;;2.60;99.90;;;;;;5052283;28;20230;-82
2021/11/25 09:33:03;;;;;;;27.25;14.43;;;2.70;99.90;;;;;;4988194;28;20204;-82
2021/11/25 09:35:43;;;;;;;26.20;16.13;;;2.90;99.90;;;;;;4985375;28;20302;-82
2021/11/25 09:38:25;;;;;;;21.83;13.52;;;2.90;99.90;;;;;;4982667;28;20228;-84
2021/11/25 09:40:52;;;;;;;24.38;15.23;;;2.90;99.90;;;;;;4985757;28;20210;-82
2021/11/25 09:43:24;;;;;;;27.55;16.90;;;3.10;99.90;;;;;;5011309;28;20215;-80
2021/11/25 09:45:52;;;;;;;23.13;14.40;;;3.10;99.90;;;;;;5029744;28;20209;-82
2021/11/25 09:48:20;;;;;;;25.20;17.42;;;3.20;99.90;;;;;;5029708;28;20296;-81
2021/11/25 09:50:51;;;;;;;25.92;16.65;;;3.30;99.90;;;;;;5030319;28;20210;-81
2021/11/25 09:53:20;;;;;;;22.88;13.95;;;3.20;99.90;;;;;;5029339;28;20231;-81
2021/11/25 09:55:50;;;;;;;20.88;15.18;;;3.40;99.90;;;;;;5026380;28;20262;-81
2021/11/25 09:58:19;;;;;;;23.52;14.52;;;3.50;99.90;;;;;;5026109;28;20229;-80
2021/11/25 10:00:49;;;;;;;23.48;15.93;;;3.40;99.90;;;;;;5026477;28;20203;-81
2021/11/25 10:03:18;;;;;;;24.00;14.82;;;3.20;99.90;;;;;;5028042;28;20236;-80
2021/11/25 10:05:48;;;;;;;20.48;15.93;;;3.30;99.90;;;;;;5029246;28;20244;-82
2021/11/25 10:08:31;;;;;;;20.95;15.95;;;3.20;99.90;;;;;;5029241;28;20229;-82
2021/11/25 10:11:04;;;;;;;24.73;16.20;;;3.10;99.90;;;;;;5028479;28;20213;-80
2021/11/25 10:13:38;;;;;;;23.05;14.18;;;3.20;99.90;;;;;;5028917;28;20237;-82
2021/11/25 10:16:09;;;;;;;23.63;14.00;;;2.90;99.90;;;;;;5029185;28;20200;-82
2021/11/25 10:18:36;;;;;;;21.80;13.40;;;3.10;99.90;;;;;;5062449;22;20630;-82
2021/11/25 10:21:07;;;;;;;26.33;15.95;;;3.30;99.90;;;;;;5060242;28;20622;-84
2021/11/25 10:23:35;;;;;;;24.25;16.45;;;3.40;99.90;;;;;;5060405;28;20570;-84
2021/11/25 10:26:03;;;;;;;23.30;17.60;;;3.20;99.90;;;;;;5060525;28;20676;-83
2021/11/25 10:28:35;;;;;;;16.70;13.35;;;3.50;99.90;;;;;;5059923;28;20228;-84
2021/11/25 10:31:06;;;;;;;22.15;15.52;;;3.50;99.90;;;;;;5060249;28;20204;-84
2021/11/25 10:33:36;;;;;;;22.73;16.10;;;3.60;99.90;;;;;;5060290;28;20212;-84
2021/11/25 10:36:28;;;;;;;24.45;15.82;;;3.60;99.90;;;;;;5060425;28;20667;-85
2021/11/25 10:39:00;;;;;;;22.95;14.63;;;3.30;99.90;;;;;;5060101;28;20318;-84
2021/11/25 10:41:29;;;;;;;23.77;15.23;;;3.00;99.90;;;;;;5060024;28;20261;-83
2021/11/25 10:44:04;;;;;;;25.90;15.27;;;2.90;99.90;;;;;;5060449;28;20206;-84
2021/11/25 10:46:44;;;;;;;20.90;13.60;;;2.90;99.90;;;;;;5060333;28;20203;-84
2021/11/25 10:49:11;;;;;;;23.20;14.55;;;3.00;99.90;;;;;;5059360;28;20248;-83
2021/11/25 10:51:42;;;;;;;29.83;17.58;;;3.30;99.90;;;;;;5059824;28;20300;-84
2021/11/25 10:54:11;;;;;;;21.38;14.77;;;3.40;99.90;;;;;;5060249;28;20235;-83
2021/11/25 10:56:40;;;;;;;19.33;15.32;;;3.50;99.90;;;;;;5059945;28;20201;-84
2021/11/25 10:59:08;;;;;;;26.42;15.13;;;3.40;99.90;;;;;;5060288;28;20228;-83
2021/11/25 11:01:37;;;;;;;25.63;15.40;;;3.30;99.90;;;;;;5059231;28;20216;-84
2021/11/25 11:04:05;;;;;;;21.98;15.70;;;3.50;99.90;;;;;;5059537;28;20197;-84
2021/11/25 11:06:33;;;;;;;18.58;14.25;;;3.50;99.90;;;;;;5059543;28;20208;-84
2021/11/25 11:09:01;;;;;;;22.48;14.38;;;3.70;99.90;;;;;;5059162;28;20235;-84
2021/11/25 11:11:30;;;;;;;27.55;14.88;;;3.70;99.90;;;;;;5059438;28;20212;-84
2021/11/25 11:14:22;;;;;;;21.65;14.68;;;3.70;99.90;;;;;;5059326;28;20264;-84
2021/11/25 11:16:51;;;;;;;19.73;14.38;;;3.70;99.90;;;;;;5059169;28;20229;-84
2021/11/25 11:19:18;;;;;;;20.95;14.40;;;3.70;99.90;;;;;;5059834;28;20234;-84
2021/11/25 11:21:48;;;;;;;19.30;13.82;;;3.90;99.90;;;;;;5059556;28;20219;-82
2021/11/25 11:24:19;;;;;;;26.23;14.05;;;4.00;99.90;;;;;;5060439;28;20200;-84
2021/11/25 11:26:49;;;;;;;22.08;15.15;;;3.70;99.90;;;;;;5058818;28;20213;-84
2021/11/25 11:29:19;;;;;;;26.02;15.88;;;3.20;99.90;;;;;;5058370;28;20740;-84
2021/11/25 11:31:47;;;;;;;22.55;14.68;;;3.10;99.90;;;;;;5059669;28;20215;-83
2021/11/25 11:34:15;;;;;;;20.98;14.10;;;3.20;99.90;;;;;;5062077;28;20596;-84
2021/11/25 11:36:44;;;;;;;27.90;15.00;;;3.30;99.90;;;;;;5058450;28;20636;-84
2021/11/25 11:39:13;;;;;;;27.23;15.57;;;3.20;99.90;;;;;;5058193;28;20224;-83
2021/11/25 11:41:42;;;;;;;24.70;15.82;;;3.30;99.90;;;;;;5058408;28;20212;-83
2021/11/25 11:44:10;;;;;;;19.27;13.32;;;3.30;99.90;;;;;;5058056;28;20202;-84
2021/11/25 11:46:38;;;;;;;19.90;15.57;;;3.10;99.90;;;;;;5058203;28;20208;-84
2021/11/25 11:49:06;;;;;;;26.77;16.25;;;3.00;99.90;;;;;;5058076;28;20227;-84
2021/11/25 11:51:34;;;;;;;22.17;13.73;;;3.20;99.90;;;;;;5057237;28;20216;-84
2021/11/25 11:54:02;;;;;;;23.35;15.57;;;3.40;99.90;;;;;;5057698;28;20295;-84
2021/11/25 11:56:39;;;;;;;23.95;15.63;;;3.60;99.90;;;;;;5058093;28;20208;-84
2021/11/25 11:59:08;;;;;;;18.08;13.90;;;3.40;99.90;;;;;;5059182;28;20244;-83
2021/11/25 12:01:37;;;;;;;26.85;17.05;;;3.60;99.90;;;;;;5057660;28;20213;-84
2021/11/25 12:04:15;;;;;;;24.45;14.50;;;3.40;99.90;;;;;;5058059;28;20208;-84
2021/11/25 12:06:44;;;;;;;23.52;14.63;;;3.40;99.90;;;;;;5057557;28;20223;-84
2021/11/25 12:09:35;;;;;;;28.05;16.85;;;3.70;99.90;;;;;;5057944;28;20243;-84
2021/11/25 12:12:11;;;;;;;23.23;14.68;;;3.90;99.90;;;;;;5058212;28;20219;-84
2021/11/25 12:14:49;;;;;;;24.23;15.48;;;3.90;99.90;;;;;;5058448;28;20720;-84
2021/11/25 12:17:26;;;;;;;26.67;15.10;;;3.70;99.90;;;;;;5057470;28;20648;-84
2021/11/25 12:19:53;;;;;;;23.52;15.30;;;3.50;99.90;;;;;;5057460;28;20219;-84
2021/11/25 12:22:21;;;;;;;18.02;13.68;;;3.50;99.90;;;;;;5057127;28;20217;-83
2021/11/25 12:24:50;;;;;;;22.95;15.43;;;3.40;99.90;;;;;;5070623;28;20195;-81
2021/11/25 12:27:31;;;;;;;24.98;17.00;;;3.40;99.90;;;;;;5079525;28;20266;-81
2021/11/25 12:30:10;;;;;;;21.95;16.70;;;3.40;99.90;;;;;;5080053;28;20260;-81
2021/11/25 12:32:51;;;;;;;20.45;16.05;;;3.30;99.90;;;;;;5072379;28;20574;-83
2021/11/25 12:35:41;;;;;;;21.38;15.20;;;3.30;99.90;;;;;;5062011;28;20223;-84
2021/11/25 12:38:17;;;;;;;21.55;15.45;;;3.20;99.90;;;;;;5062106;28;20232;-84
2021/11/25 12:41:00;;;;;;;23.10;14.48;;;3.00;99.90;;;;;;5061715;28;20213;-83
2021/11/25 12:43:32;;;;;;;25.60;17.20;;;3.10;99.90;;;;;;5062788;28;20300;-84
2021/11/25 12:46:05;;;;;;;22.10;15.20;;;3.20;99.90;;;;;;5062272;28;20200;-83
2021/11/25 12:48:35;;;;;;;28.77;16.02;;;3.20;99.90;;;;;;5066439;28;20223;-84
2021/11/25 12:51:09;;;;;;;28.27;16.48;;;3.40;99.90;;;;;;5065952;28;20209;-84
2021/11/25 12:53:39;;;;;;;24.67;14.38;;;3.40;99.90;;;;;;5067862;28;20214;-83
2021/11/25 12:56:15;;;;;;;22.35;14.15;;;3.40;99.90;;;;;;5066200;28;20235;-83
2021/11/25 12:58:49;;;;;;;22.30;14.32;;;3.30;99.90;;;;;;5064974;28;20229;-82
2021/11/25 13:01:23;;;;;;;24.35;13.88;;;3.30;99.90;;;;;;5061010;28;20338;-83
2021/11/25 13:04:07;;;;;;;22.90;16.90;;;3.50;99.90;;;;;;5061301;28;20207;-83
2021/11/25 13:06:34;;;;;;;24.50;15.80;;;3.50;99.90;;;;;;5061312;28;20240;-83
2021/11/25 13:09:05;;;;;;;23.02;16.80;;;3.50;99.90;;;;;;5061067;28;20758;-84
2021/11/25 13:11:32;;;;;;;24.27;16.00;;;3.30;99.90;;;;;;5060697;28;20210;-84
2021/11/25 13:14:03;;;;;;;23.77;15.13;;;3.40;99.90;;;;;;5060648;28;20219;-83
2021/11/25 13:16:39;;;;;;;23.88;15.95;;;3.30;99.90;;;;;;5060702;28;20278;-83
2021/11/25 13:19:06;;;;;;;18.55;15.40;;;3.20;99.90;;;;;;5060629;28;20239;-83
2021/11/25 13:21:35;;;;;;;22.55;16.10;;;3.10;99.90;;;;;;5060618;28;20215;-84
2021/11/25 13:24:07;;;;;;;19.27;13.98;;;3.10;99.90;;;;;;5062241;28;20202;-83
2021/11/25 13:26:42;;;;;;;21.92;15.30;;;3.00;99.90;;;;;;5062536;28;20198;-84
2021/11/25 13:29:09;;;;;;;23.92;15.88;;;2.70;99.90;;;;;;5061932;28;20242;-84
2021/11/25 13:31:37;;;;;;;29.55;17.20;;;2.70;99.90;;;;;;5060747;28;20207;-84
2021/11/25 13:34:06;;;;;;;24.70;16.35;;;2.70;99.90;;;;;;5062795;28;20208;-83
2021/11/25 13:36:45;;;;;;;20.25;16.00;;;2.60;99.90;;;;;;5061260;28;20239;-84